sensor_id;sensor_type;location;lat;lon;timestamp;P1;durP1;ratioP1;P2;durP2;ratioP2
42036;SDS011;30340;52.004;5.908;2023-09-19T00:02:26;2.17;;;1.25;;
42036;SDS011;30340;52.004;5.908;2023-09-19T00:04:52;3.25;;;1.33;;
42036;SDS011;30340;52.004;5.908;2023-09-19T00:07:18;2.95;;;1.30;;
42036;SDS011;30340;52.004;5.908;2023-09-19T00:13:00;3.42;;;1.33;;
42036;SDS011;30340;52.004;5.908;2023-09-19T00:15:37;1.95;;;1.05;;
42036;SDS011;30340;52.004;5.908;2023-09-19T00:18:03;3.20;;;1.40;;
42036;SDS011;30340;52.004;5.908;2023-09-19T00:20:35;4.28;;;1.70;;
42036;SDS011;30340;52.004;5.908;2023-09-19T00:23:01;4.07;;;1.45;;
42036;SDS011;30340;52.004;5.908;2023-09-19T00:25:38;4.70;;;1.48;;
42036;SDS011;30340;52.004;5.908;2023-09-19T00:28:07;6.07;;;1.55;;
42036;SDS011;30340;52.004;5.908;2023-09-19T00:30:35;3.55;;;1.50;;
42036;SDS011;30340;52.004;5.908;2023-09-19T00:33:06;5.43;;;1.88;;
42036;SDS011;30340;52.004;5.908;2023-09-19T00:35:34;5.65;;;1.80;;
42036;SDS011;30340;52.004;5.908;2023-09-19T00:38:15;5.30;;;1.90;;
42036;SDS011;30340;52.004;5.908;2023-09-19T00:40:45;6.18;;;1.83;;
42036;SDS011;30340;52.004;5.908;2023-09-19T00:43:11;6.78;;;1.70;;
42036;SDS011;30340;52.004;5.908;2023-09-19T00:45:37;9.10;;;2.40;;
42036;SDS011;30340;52.004;5.908;2023-09-19T00:48:04;7.53;;;2.10;;
42036;SDS011;30340;52.004;5.908;2023-09-19T00:50:34;6.05;;;1.80;;
42036;SDS011;30340;52.004;5.908;2023-09-19T00:53:00;7.70;;;2.00;;
42036;SDS011;30340;52.004;5.908;2023-09-19T00:55:26;9.20;;;2.30;;
42036;SDS011;30340;52.004;5.908;2023-09-19T00:57:55;5.60;;;2.25;;
42036;SDS011;30340;52.004;5.908;2023-09-19T01:00:22;5.13;;;1.80;;
42036;SDS011;30340;52.004;5.908;2023-09-19T01:02:48;6.75;;;2.17;;
42036;SDS011;30340;52.004;5.908;2023-09-19T01:05:14;5.93;;;1.90;;
42036;SDS011;30340;52.004;5.908;2023-09-19T01:07:40;6.10;;;1.98;;
42036;SDS011;30340;52.004;5.908;2023-09-19T01:10:07;7.85;;;2.22;;
42036;SDS011;30340;52.004;5.908;2023-09-19T01:31:27;7.32;;;2.05;;
42036;SDS011;30340;52.004;5.908;2023-09-19T01:34:00;6.40;;;1.90;;
42036;SDS011;30340;52.004;5.908;2023-09-19T01:36:30;8.57;;;2.10;;
42036;SDS011;30340;52.004;5.908;2023-09-19T01:39:01;7.32;;;2.38;;
42036;SDS011;30340;52.004;5.908;2023-09-19T01:47:37;8.10;;;2.40;;
42036;SDS011;30340;52.004;5.908;2023-09-19T01:53:02;7.37;;;1.97;;
42036;SDS011;30340;52.004;5.908;2023-09-19T01:55:35;5.63;;;2.00;;
42036;SDS011;30340;52.004;5.908;2023-09-19T01:58:08;5.10;;;2.05;;
42036;SDS011;30340;52.004;5.908;2023-09-19T02:00:52;8.43;;;2.42;;
42036;SDS011;30340;52.004;5.908;2023-09-19T02:03:20;8.48;;;2.80;;
42036;SDS011;30340;52.004;5.908;2023-09-19T02:05:50;10.32;;;2.80;;
42036;SDS011;30340;52.004;5.908;2023-09-19T02:08:19;10.47;;;2.93;;
42036;SDS011;30340;52.004;5.908;2023-09-19T02:10:45;11.35;;;2.88;;
42036;SDS011;30340;52.004;5.908;2023-09-19T02:13:15;6.75;;;2.35;;
42036;SDS011;30340;52.004;5.908;2023-09-19T02:15:42;6.55;;;2.05;;
42036;SDS011;30340;52.004;5.908;2023-09-19T02:18:09;7.95;;;2.03;;
42036;SDS011;30340;52.004;5.908;2023-09-19T02:20:36;8.85;;;2.00;;
42036;SDS011;30340;52.004;5.908;2023-09-19T02:23:02;7.88;;;2.60;;
42036;SDS011;30340;52.004;5.908;2023-09-19T02:25:28;6.82;;;2.17;;
42036;SDS011;30340;52.004;5.908;2023-09-19T02:27:56;8.27;;;2.28;;
42036;SDS011;30340;52.004;5.908;2023-09-19T02:30:23;11.85;;;2.97;;
42036;SDS011;30340;52.004;5.908;2023-09-19T02:32:51;8.02;;;2.40;;
42036;SDS011;30340;52.004;5.908;2023-09-19T02:35:16;9.48;;;2.28;;
42036;SDS011;30340;52.004;5.908;2023-09-19T02:37:44;9.30;;;2.45;;
42036;SDS011;30340;52.004;5.908;2023-09-19T02:40:10;9.15;;;2.60;;
42036;SDS011;30340;52.004;5.908;2023-09-19T02:42:44;10.25;;;2.65;;
42036;SDS011;30340;52.004;5.908;2023-09-19T02:45:12;6.75;;;2.13;;
42036;SDS011;30340;52.004;5.908;2023-09-19T02:47:39;7.32;;;2.08;;
42036;SDS011;30340;52.004;5.908;2023-09-19T02:50:05;6.50;;;2.28;;
42036;SDS011;30340;52.004;5.908;2023-09-19T02:52:31;7.03;;;2.53;;
42036;SDS011;30340;52.004;5.908;2023-09-19T02:54:56;10.60;;;2.75;;
42036;SDS011;30340;52.004;5.908;2023-09-19T02:57:22;7.97;;;2.65;;
42036;SDS011;30340;52.004;5.908;2023-09-19T02:59:49;7.80;;;2.55;;
42036;SDS011;30340;52.004;5.908;2023-09-19T03:02:14;6.68;;;2.35;;
42036;SDS011;30340;52.004;5.908;2023-09-19T03:07:14;7.53;;;2.30;;
42036;SDS011;30340;52.004;5.908;2023-09-19T03:09:42;8.63;;;2.08;;
42036;SDS011;30340;52.004;5.908;2023-09-19T03:12:12;9.43;;;2.38;;
42036;SDS011;30340;52.004;5.908;2023-09-19T03:14:40;8.25;;;2.10;;
42036;SDS011;30340;52.004;5.908;2023-09-19T03:17:06;9.93;;;2.13;;
42036;SDS011;30340;52.004;5.908;2023-09-19T03:19:34;8.38;;;2.67;;
42036;SDS011;30340;52.004;5.908;2023-09-19T03:21:59;8.40;;;2.40;;
42036;SDS011;30340;52.004;5.908;2023-09-19T03:24:25;8.18;;;2.13;;
42036;SDS011;30340;52.004;5.908;2023-09-19T03:26:51;8.32;;;2.17;;
42036;SDS011;30340;52.004;5.908;2023-09-19T03:29:17;9.88;;;2.75;;
42036;SDS011;30340;52.004;5.908;2023-09-19T03:31:43;6.45;;;2.30;;
42036;SDS011;30340;52.004;5.908;2023-09-19T03:34:08;4.53;;;1.70;;
42036;SDS011;30340;52.004;5.908;2023-09-19T03:36:34;9.25;;;2.60;;
42036;SDS011;30340;52.004;5.908;2023-09-19T03:39:00;8.30;;;2.13;;
42036;SDS011;30340;52.004;5.908;2023-09-19T03:41:26;7.53;;;2.30;;
42036;SDS011;30340;52.004;5.908;2023-09-19T03:43:51;9.23;;;2.75;;
42036;SDS011;30340;52.004;5.908;2023-09-19T03:46:17;6.40;;;1.98;;
42036;SDS011;30340;52.004;5.908;2023-09-19T03:48:43;11.52;;;2.67;;
42036;SDS011;30340;52.004;5.908;2023-09-19T03:51:09;6.30;;;2.00;;
42036;SDS011;30340;52.004;5.908;2023-09-19T03:53:34;7.50;;;2.30;;
42036;SDS011;30340;52.004;5.908;2023-09-19T03:56:00;7.13;;;2.30;;
42036;SDS011;30340;52.004;5.908;2023-09-19T03:58:26;8.68;;;2.00;;
42036;SDS011;30340;52.004;5.908;2023-09-19T04:00:55;6.38;;;2.00;;
42036;SDS011;30340;52.004;5.908;2023-09-19T04:03:23;7.63;;;2.20;;
42036;SDS011;30340;52.004;5.908;2023-09-19T04:05:59;6.13;;;2.00;;
42036;SDS011;30340;52.004;5.908;2023-09-19T04:08:25;6.93;;;2.30;;
42036;SDS011;30340;52.004;5.908;2023-09-19T04:10:51;9.02;;;2.40;;
42036;SDS011;30340;52.004;5.908;2023-09-19T04:13:21;6.88;;;2.20;;
42036;SDS011;30340;52.004;5.908;2023-09-19T04:15:46;7.30;;;2.30;;
42036;SDS011;30340;52.004;5.908;2023-09-19T04:18:12;9.73;;;2.50;;
42036;SDS011;30340;52.004;5.908;2023-09-19T04:20:37;7.32;;;2.20;;
42036;SDS011;30340;52.004;5.908;2023-09-19T04:23:03;6.53;;;1.92;;
42036;SDS011;30340;52.004;5.908;2023-09-19T04:25:30;7.00;;;2.22;;
42036;SDS011;30340;52.004;5.908;2023-09-19T04:27:56;6.82;;;2.22;;
42036;SDS011;30340;52.004;5.908;2023-09-19T04:30:22;8.48;;;2.20;;
42036;SDS011;30340;52.004;5.908;2023-09-19T04:32:48;9.68;;;2.38;;
42036;SDS011;30340;52.004;5.908;2023-09-19T04:35:15;8.25;;;2.25;;
42036;SDS011;30340;52.004;5.908;2023-09-19T04:37:41;4.70;;;2.03;;
42036;SDS011;30340;52.004;5.908;2023-09-19T04:40:07;6.78;;;2.13;;
42036;SDS011;30340;52.004;5.908;2023-09-19T04:42:42;9.55;;;2.17;;
42036;SDS011;30340;52.004;5.908;2023-09-19T04:45:11;6.88;;;2.05;;
42036;SDS011;30340;52.004;5.908;2023-09-19T04:47:37;6.45;;;2.05;;
42036;SDS011;30340;52.004;5.908;2023-09-19T04:50:05;6.18;;;2.13;;
42036;SDS011;30340;52.004;5.908;2023-09-19T04:52:38;7.40;;;2.30;;
42036;SDS011;30340;52.004;5.908;2023-09-19T04:55:10;8.68;;;2.10;;
42036;SDS011;30340;52.004;5.908;2023-09-19T04:57:50;5.60;;;2.33;;
42036;SDS011;30340;52.004;5.908;2023-09-19T05:00:18;7.68;;;2.30;;
42036;SDS011;30340;52.004;5.908;2023-09-19T05:02:51;11.27;;;2.47;;
42036;SDS011;30340;52.004;5.908;2023-09-19T05:05:19;8.88;;;2.17;;
42036;SDS011;30340;52.004;5.908;2023-09-19T05:07:45;5.93;;;2.03;;
42036;SDS011;30340;52.004;5.908;2023-09-19T05:10:11;6.80;;;2.45;;
42036;SDS011;30340;52.004;5.908;2023-09-19T05:12:37;7.97;;;2.20;;
42036;SDS011;30340;52.004;5.908;2023-09-19T05:15:03;7.35;;;2.13;;
42036;SDS011;30340;52.004;5.908;2023-09-19T05:17:31;9.30;;;2.63;;
42036;SDS011;30340;52.004;5.908;2023-09-19T05:19:57;11.00;;;2.70;;
42036;SDS011;30340;52.004;5.908;2023-09-19T05:22:23;6.60;;;2.28;;
42036;SDS011;30340;52.004;5.908;2023-09-19T05:24:52;4.97;;;2.00;;
42036;SDS011;30340;52.004;5.908;2023-09-19T05:27:18;6.50;;;1.98;;
42036;SDS011;30340;52.004;5.908;2023-09-19T05:29:46;7.55;;;2.58;;
42036;SDS011;30340;52.004;5.908;2023-09-19T05:32:13;4.85;;;1.70;;
42036;SDS011;30340;52.004;5.908;2023-09-19T05:34:38;7.45;;;2.10;;
42036;SDS011;30340;52.004;5.908;2023-09-19T05:37:10;5.78;;;2.17;;
42036;SDS011;30340;52.004;5.908;2023-09-19T05:39:41;7.82;;;2.63;;
42036;SDS011;30340;52.004;5.908;2023-09-19T05:42:07;6.07;;;1.90;;
42036;SDS011;30340;52.004;5.908;2023-09-19T05:44:33;9.98;;;2.42;;
42036;SDS011;30340;52.004;5.908;2023-09-19T05:46:59;7.55;;;2.30;;
42036;SDS011;30340;52.004;5.908;2023-09-19T05:49:25;6.15;;;1.98;;
42036;SDS011;30340;52.004;5.908;2023-09-19T06:05:24;8.82;;;2.45;;
42036;SDS011;30340;52.004;5.908;2023-09-19T06:07:51;5.68;;;1.88;;
42036;SDS011;30340;52.004;5.908;2023-09-19T06:10:18;7.47;;;1.95;;
42036;SDS011;30340;52.004;5.908;2023-09-19T06:12:45;9.98;;;2.60;;
42036;SDS011;30340;52.004;5.908;2023-09-19T06:15:15;7.65;;;2.35;;
42036;SDS011;30340;52.004;5.908;2023-09-19T06:17:47;9.57;;;2.22;;
42036;SDS011;30340;52.004;5.908;2023-09-19T06:20:14;8.38;;;2.00;;
42036;SDS011;30340;52.004;5.908;2023-09-19T06:22:41;8.00;;;2.22;;
42036;SDS011;30340;52.004;5.908;2023-09-19T06:25:08;8.13;;;1.90;;
42036;SDS011;30340;52.004;5.908;2023-09-19T06:27:40;8.23;;;2.35;;
42036;SDS011;30340;52.004;5.908;2023-09-19T06:30:07;8.43;;;2.03;;
42036;SDS011;30340;52.004;5.908;2023-09-19T06:32:34;8.48;;;2.40;;
42036;SDS011;30340;52.004;5.908;2023-09-19T06:35:01;6.35;;;1.95;;
42036;SDS011;30340;52.004;5.908;2023-09-19T06:37:28;9.48;;;2.40;;
42036;SDS011;30340;52.004;5.908;2023-09-19T06:39:54;4.75;;;2.30;;
42036;SDS011;30340;52.004;5.908;2023-09-19T06:42:19;8.43;;;2.00;;
42036;SDS011;30340;52.004;5.908;2023-09-19T06:44:45;5.35;;;1.95;;
42036;SDS011;30340;52.004;5.908;2023-09-19T06:47:11;10.82;;;2.20;;
42036;SDS011;30340;52.004;5.908;2023-09-19T06:49:37;7.90;;;1.95;;
42036;SDS011;30340;52.004;5.908;2023-09-19T06:52:02;8.50;;;1.90;;
42036;SDS011;30340;52.004;5.908;2023-09-19T06:54:28;9.25;;;2.28;;
42036;SDS011;30340;52.004;5.908;2023-09-19T06:57:00;6.85;;;2.35;;
42036;SDS011;30340;52.004;5.908;2023-09-19T06:59:25;8.10;;;1.80;;
42036;SDS011;30340;52.004;5.908;2023-09-19T07:01:51;7.35;;;1.90;;
42036;SDS011;30340;52.004;5.908;2023-09-19T07:04:17;8.18;;;2.08;;
42036;SDS011;30340;52.004;5.908;2023-09-19T07:06:49;9.07;;;2.42;;
42036;SDS011;30340;52.004;5.908;2023-09-19T07:12:31;7.95;;;2.22;;
42036;SDS011;30340;52.004;5.908;2023-09-19T07:15:18;7.68;;;2.50;;
42036;SDS011;30340;52.004;5.908;2023-09-19T07:18:15;10.43;;;2.30;;
42036;SDS011;30340;52.004;5.908;2023-09-19T07:20:50;9.90;;;2.40;;
42036;SDS011;30340;52.004;5.908;2023-09-19T07:23:26;5.23;;;1.83;;
42036;SDS011;30340;52.004;5.908;2023-09-19T07:25:52;10.32;;;2.45;;
42036;SDS011;30340;52.004;5.908;2023-09-19T07:28:21;9.50;;;2.35;;
42036;SDS011;30340;52.004;5.908;2023-09-19T07:30:47;7.50;;;2.00;;
42036;SDS011;30340;52.004;5.908;2023-09-19T07:33:13;8.10;;;2.13;;
42036;SDS011;30340;52.004;5.908;2023-09-19T07:35:39;8.02;;;2.33;;
42036;SDS011;30340;52.004;5.908;2023-09-19T07:38:05;7.13;;;2.20;;
42036;SDS011;30340;52.004;5.908;2023-09-19T07:40:31;6.75;;;2.00;;
42036;SDS011;30340;52.004;5.908;2023-09-19T07:42:57;7.43;;;2.40;;
42036;SDS011;30340;52.004;5.908;2023-09-19T07:45:26;7.07;;;2.03;;
42036;SDS011;30340;52.004;5.908;2023-09-19T07:47:58;9.15;;;2.17;;
42036;SDS011;30340;52.004;5.908;2023-09-19T07:50:29;11.05;;;2.88;;
42036;SDS011;30340;52.004;5.908;2023-09-19T07:52:54;7.32;;;2.30;;
42036;SDS011;30340;52.004;5.908;2023-09-19T07:55:21;8.75;;;2.30;;
42036;SDS011;30340;52.004;5.908;2023-09-19T07:57:51;4.90;;;1.98;;
42036;SDS011;30340;52.004;5.908;2023-09-19T08:00:18;10.75;;;2.40;;
42036;SDS011;30340;52.004;5.908;2023-09-19T08:02:44;8.30;;;2.10;;
42036;SDS011;30340;52.004;5.908;2023-09-19T08:05:28;9.50;;;2.28;;
42036;SDS011;30340;52.004;5.908;2023-09-19T08:07:54;9.98;;;2.22;;
42036;SDS011;30340;52.004;5.908;2023-09-19T08:10:21;13.93;;;3.63;;
42036;SDS011;30340;52.004;5.908;2023-09-19T08:12:47;12.07;;;2.47;;
42036;SDS011;30340;52.004;5.908;2023-09-19T08:15:14;11.30;;;2.67;;
42036;SDS011;30340;52.004;5.908;2023-09-19T08:17:44;7.03;;;2.38;;
42036;SDS011;30340;52.004;5.908;2023-09-19T08:20:11;6.10;;;2.13;;
42036;SDS011;30340;52.004;5.908;2023-09-19T08:22:44;8.23;;;2.22;;
42036;SDS011;30340;52.004;5.908;2023-09-19T08:25:17;8.80;;;2.40;;
42036;SDS011;30340;52.004;5.908;2023-09-19T08:27:47;7.15;;;2.63;;
42036;SDS011;30340;52.004;5.908;2023-09-19T08:30:17;7.57;;;2.63;;
42036;SDS011;30340;52.004;5.908;2023-09-19T08:32:48;11.18;;;2.90;;
42036;SDS011;30340;52.004;5.908;2023-09-19T08:35:14;7.85;;;2.45;;
42036;SDS011;30340;52.004;5.908;2023-09-19T08:37:52;9.75;;;2.53;;
42036;SDS011;30340;52.004;5.908;2023-09-19T08:41:09;10.10;;;2.40;;
42036;SDS011;30340;52.004;5.908;2023-09-19T08:43:35;9.10;;;2.83;;
42036;SDS011;30340;52.004;5.908;2023-09-19T08:46:09;9.95;;;2.60;;
42036;SDS011;30340;52.004;5.908;2023-09-19T08:48:50;10.10;;;2.28;;
42036;SDS011;30340;52.004;5.908;2023-09-19T08:51:26;9.43;;;2.65;;
42036;SDS011;30340;52.004;5.908;2023-09-19T08:56:31;7.65;;;2.75;;
42036;SDS011;30340;52.004;5.908;2023-09-19T08:59:04;10.40;;;2.90;;
42036;SDS011;30340;52.004;5.908;2023-09-19T09:01:32;10.50;;;2.50;;
42036;SDS011;30340;52.004;5.908;2023-09-19T09:03:58;10.20;;;2.63;;
42036;SDS011;30340;52.004;5.908;2023-09-19T09:06:26;7.47;;;2.28;;
42036;SDS011;30340;52.004;5.908;2023-09-19T09:08:54;10.82;;;2.50;;
42036;SDS011;30340;52.004;5.908;2023-09-19T09:11:21;9.95;;;2.83;;
42036;SDS011;30340;52.004;5.908;2023-09-19T09:13:50;10.20;;;2.65;;
42036;SDS011;30340;52.004;5.908;2023-09-19T09:16:16;11.20;;;2.90;;
42036;SDS011;30340;52.004;5.908;2023-09-19T09:18:47;10.38;;;2.67;;
42036;SDS011;30340;52.004;5.908;2023-09-19T09:21:17;13.45;;;3.30;;
42036;SDS011;30340;52.004;5.908;2023-09-19T09:23:43;7.53;;;2.33;;
42036;SDS011;30340;52.004;5.908;2023-09-19T09:26:09;8.05;;;2.40;;
42036;SDS011;30340;52.004;5.908;2023-09-19T09:28:35;10.25;;;2.70;;
42036;SDS011;30340;52.004;5.908;2023-09-19T09:31:12;5.85;;;1.95;;
42036;SDS011;30340;52.004;5.908;2023-09-19T09:33:52;11.60;;;3.30;;
42036;SDS011;30340;52.004;5.908;2023-09-19T09:36:37;5.35;;;2.28;;
42036;SDS011;30340;52.004;5.908;2023-09-19T09:39:03;7.97;;;2.17;;
42036;SDS011;30340;52.004;5.908;2023-09-19T09:41:50;9.73;;;2.60;;
42036;SDS011;30340;52.004;5.908;2023-09-19T09:44:18;8.90;;;2.35;;
42036;SDS011;30340;52.004;5.908;2023-09-19T09:46:44;6.25;;;2.20;;
42036;SDS011;30340;52.004;5.908;2023-09-19T09:49:23;6.90;;;2.17;;
42036;SDS011;30340;52.004;5.908;2023-09-19T09:52:06;6.07;;;2.30;;
42036;SDS011;30340;52.004;5.908;2023-09-19T09:54:32;8.77;;;2.72;;
42036;SDS011;30340;52.004;5.908;2023-09-19T09:57:02;8.25;;;2.40;;
42036;SDS011;30340;52.004;5.908;2023-09-19T09:59:51;9.25;;;2.65;;
42036;SDS011;30340;52.004;5.908;2023-09-19T10:02:19;7.38;;;2.30;;
42036;SDS011;30340;52.004;5.908;2023-09-19T10:04:53;8.70;;;2.53;;
42036;SDS011;30340;52.004;5.908;2023-09-19T10:07:39;8.55;;;2.17;;
42036;SDS011;30340;52.004;5.908;2023-09-19T10:10:14;8.20;;;2.50;;
42036;SDS011;30340;52.004;5.908;2023-09-19T10:12:54;8.27;;;2.50;;
42036;SDS011;30340;52.004;5.908;2023-09-19T10:15:27;8.50;;;2.70;;
42036;SDS011;30340;52.004;5.908;2023-09-19T10:17:57;12.02;;;2.60;;
42036;SDS011;30340;52.004;5.908;2023-09-19T10:20:26;9.40;;;2.78;;
42036;SDS011;30340;52.004;5.908;2023-09-19T10:23:09;8.82;;;2.22;;
42036;SDS011;30340;52.004;5.908;2023-09-19T10:25:39;9.82;;;2.58;;
42036;SDS011;30340;52.004;5.908;2023-09-19T10:28:06;8.68;;;2.40;;
42036;SDS011;30340;52.004;5.908;2023-09-19T10:30:45;9.25;;;2.33;;
42036;SDS011;30340;52.004;5.908;2023-09-19T10:33:15;12.02;;;3.00;;
42036;SDS011;30340;52.004;5.908;2023-09-19T10:35:45;7.40;;;2.30;;
42036;SDS011;30340;52.004;5.908;2023-09-19T10:38:13;8.52;;;2.47;;
42036;SDS011;30340;52.004;5.908;2023-09-19T10:40:42;7.82;;;2.28;;
42036;SDS011;30340;52.004;5.908;2023-09-19T10:43:16;7.25;;;2.10;;
42036;SDS011;30340;52.004;5.908;2023-09-19T10:45:43;10.35;;;2.20;;
42036;SDS011;30340;52.004;5.908;2023-09-19T10:48:20;7.93;;;2.40;;
42036;SDS011;30340;52.004;5.908;2023-09-19T10:51:06;7.72;;;3.30;;
42036;SDS011;30340;52.004;5.908;2023-09-19T10:53:54;6.32;;;2.05;;
42036;SDS011;30340;52.004;5.908;2023-09-19T10:56:59;7.97;;;2.30;;
42036;SDS011;30340;52.004;5.908;2023-09-19T10:59:25;6.28;;;2.00;;
42036;SDS011;30340;52.004;5.908;2023-09-19T11:01:59;6.95;;;2.40;;
42036;SDS011;30340;52.004;5.908;2023-09-19T11:04:40;7.47;;;2.20;;
42036;SDS011;30340;52.004;5.908;2023-09-19T11:07:06;5.60;;;2.20;;
42036;SDS011;30340;52.004;5.908;2023-09-19T11:14:54;8.05;;;2.50;;
42036;SDS011;30340;52.004;5.908;2023-09-19T11:30:33;8.77;;;2.20;;
42036;SDS011;30340;52.004;5.908;2023-09-19T11:41:57;8.65;;;2.28;;
42036;SDS011;30340;52.004;5.908;2023-09-19T11:46:35;7.35;;;2.13;;
42036;SDS011;30340;52.004;5.908;2023-09-19T11:49:21;11.18;;;2.22;;
42036;SDS011;30340;52.004;5.908;2023-09-19T11:51:55;10.13;;;2.72;;
42036;SDS011;30340;52.004;5.908;2023-09-19T11:54:21;7.65;;;2.15;;
42036;SDS011;30340;52.004;5.908;2023-09-19T11:56:50;7.38;;;2.28;;
42036;SDS011;30340;52.004;5.908;2023-09-19T11:59:22;5.72;;;1.92;;
42036;SDS011;30340;52.004;5.908;2023-09-19T12:01:53;6.80;;;1.92;;
42036;SDS011;30340;52.004;5.908;2023-09-19T12:04:33;5.00;;;1.80;;
42036;SDS011;30340;52.004;5.908;2023-09-19T12:07:10;7.78;;;1.85;;
42036;SDS011;30340;52.004;5.908;2023-09-19T12:10:02;8.85;;;2.22;;
42036;SDS011;30340;52.004;5.908;2023-09-19T12:12:29;6.55;;;1.65;;
42036;SDS011;30340;52.004;5.908;2023-09-19T12:14:56;5.43;;;1.80;;
42036;SDS011;30340;52.004;5.908;2023-09-19T12:17:46;5.03;;;1.70;;
42036;SDS011;30340;52.004;5.908;2023-09-19T12:20:12;5.60;;;1.77;;
42036;SDS011;30340;52.004;5.908;2023-09-19T12:22:42;6.30;;;1.70;;
42036;SDS011;30340;52.004;5.908;2023-09-19T12:25:09;5.22;;;1.55;;
42036;SDS011;30340;52.004;5.908;2023-09-19T12:27:46;6.38;;;2.00;;
42036;SDS011;30340;52.004;5.908;2023-09-19T12:30:14;7.35;;;1.83;;
42036;SDS011;30340;52.004;5.908;2023-09-19T12:32:43;7.15;;;2.10;;
42036;SDS011;30340;52.004;5.908;2023-09-19T12:35:09;7.40;;;2.13;;
42036;SDS011;30340;52.004;5.908;2023-09-19T12:37:42;7.03;;;1.58;;
42036;SDS011;30340;52.004;5.908;2023-09-19T12:40:18;5.80;;;1.42;;
42036;SDS011;30340;52.004;5.908;2023-09-19T12:42:53;3.80;;;1.38;;
42036;SDS011;30340;52.004;5.908;2023-09-19T12:45:32;5.78;;;1.55;;
42036;SDS011;30340;52.004;5.908;2023-09-19T12:53:41;3.95;;;1.35;;
42036;SDS011;30340;52.004;5.908;2023-09-19T12:56:09;2.53;;;1.00;;
42036;SDS011;30340;52.004;5.908;2023-09-19T12:58:55;4.55;;;1.35;;
42036;SDS011;30340;52.004;5.908;2023-09-19T13:01:23;3.80;;;1.40;;
42036;SDS011;30340;52.004;5.908;2023-09-19T13:06:50;3.78;;;1.52;;
42036;SDS011;30340;52.004;5.908;2023-09-19T13:09:17;5.75;;;1.52;;
42036;SDS011;30340;52.004;5.908;2023-09-19T13:11:47;6.05;;;1.60;;
42036;SDS011;30340;52.004;5.908;2023-09-19T13:19:48;5.80;;;1.20;;
42036;SDS011;30340;52.004;5.908;2023-09-19T13:25:05;4.25;;;1.60;;
42036;SDS011;30340;52.004;5.908;2023-09-19T13:27:33;3.20;;;1.20;;
42036;SDS011;30340;52.004;5.908;2023-09-19T13:30:00;2.90;;;1.10;;
42036;SDS011;30340;52.004;5.908;2023-09-19T13:32:25;3.88;;;1.33;;
42036;SDS011;30340;52.004;5.908;2023-09-19T13:34:51;4.25;;;1.40;;
42036;SDS011;30340;52.004;5.908;2023-09-19T13:37:17;3.75;;;1.30;;
42036;SDS011;30340;52.004;5.908;2023-09-19T13:39:43;3.17;;;1.25;;
42036;SDS011;30340;52.004;5.908;2023-09-19T13:42:12;5.63;;;1.42;;
42036;SDS011;30340;52.004;5.908;2023-09-19T13:44:38;4.65;;;1.15;;
42036;SDS011;30340;52.004;5.908;2023-09-19T13:47:06;3.63;;;1.38;;
42036;SDS011;30340;52.004;5.908;2023-09-19T13:49:34;5.15;;;1.50;;
42036;SDS011;30340;52.004;5.908;2023-09-19T13:52:01;6.10;;;1.83;;
42036;SDS011;30340;52.004;5.908;2023-09-19T13:54:30;4.13;;;1.10;;
42036;SDS011;30340;52.004;5.908;2023-09-19T13:56:56;3.20;;;1.00;;
42036;SDS011;30340;52.004;5.908;2023-09-19T13:59:22;2.95;;;0.90;;
42036;SDS011;30340;52.004;5.908;2023-09-19T14:01:49;3.70;;;0.90;;
42036;SDS011;30340;52.004;5.908;2023-09-19T14:04:15;2.05;;;0.88;;
42036;SDS011;30340;52.004;5.908;2023-09-19T14:06:42;2.13;;;0.90;;
42036;SDS011;30340;52.004;5.908;2023-09-19T14:09:09;3.15;;;0.93;;
42036;SDS011;30340;52.004;5.908;2023-09-19T14:11:36;3.83;;;0.95;;
42036;SDS011;30340;52.004;5.908;2023-09-19T14:14:02;3.45;;;0.90;;
42036;SDS011;30340;52.004;5.908;2023-09-19T14:16:29;2.65;;;0.90;;
42036;SDS011;30340;52.004;5.908;2023-09-19T14:18:56;3.65;;;1.00;;
42036;SDS011;30340;52.004;5.908;2023-09-19T14:21:22;3.50;;;1.10;;
42036;SDS011;30340;52.004;5.908;2023-09-19T14:23:48;3.45;;;1.20;;
42036;SDS011;30340;52.004;5.908;2023-09-19T14:26:14;1.75;;;0.93;;
42036;SDS011;30340;52.004;5.908;2023-09-19T14:28:41;3.42;;;1.30;;
42036;SDS011;30340;52.004;5.908;2023-09-19T14:31:08;3.05;;;1.00;;
42036;SDS011;30340;52.004;5.908;2023-09-19T14:33:34;4.15;;;1.50;;
42036;SDS011;30340;52.004;5.908;2023-09-19T14:36:04;3.47;;;1.10;;
42036;SDS011;30340;52.004;5.908;2023-09-19T14:38:32;5.32;;;1.25;;
42036;SDS011;30340;52.004;5.908;2023-09-19T14:40:59;3.67;;;1.10;;
42036;SDS011;30340;52.004;5.908;2023-09-19T14:43:25;2.85;;;1.17;;
42036;SDS011;30340;52.004;5.908;2023-09-19T14:45:52;5.00;;;1.30;;
42036;SDS011;30340;52.004;5.908;2023-09-19T14:48:17;2.80;;;1.20;;
42036;SDS011;30340;52.004;5.908;2023-09-19T14:50:43;4.00;;;1.33;;
42036;SDS011;30340;52.004;5.908;2023-09-19T14:53:09;2.70;;;1.20;;
42036;SDS011;30340;52.004;5.908;2023-09-19T14:55:38;3.03;;;1.42;;
42036;SDS011;30340;52.004;5.908;2023-09-19T14:58:06;3.33;;;1.17;;
42036;SDS011;30340;52.004;5.908;2023-09-19T15:00:33;2.58;;;1.10;;
42036;SDS011;30340;52.004;5.908;2023-09-19T15:02:59;4.05;;;1.40;;
42036;SDS011;30340;52.004;5.908;2023-09-19T15:05:25;3.47;;;1.27;;
42036;SDS011;30340;52.004;5.908;2023-09-19T15:07:50;4.25;;;1.65;;
42036;SDS011;30340;52.004;5.908;2023-09-19T15:10:16;3.85;;;1.10;;
42036;SDS011;30340;52.004;5.908;2023-09-19T15:12:43;4.90;;;1.73;;
42036;SDS011;30340;52.004;5.908;2023-09-19T15:15:09;4.47;;;1.38;;
42036;SDS011;30340;52.004;5.908;2023-09-19T15:17:35;5.13;;;1.42;;
42036;SDS011;30340;52.004;5.908;2023-09-19T15:20:02;3.50;;;1.33;;
42036;SDS011;30340;52.004;5.908;2023-09-19T15:22:28;3.33;;;1.38;;
42036;SDS011;30340;52.004;5.908;2023-09-19T15:24:53;4.10;;;1.40;;
42036;SDS011;30340;52.004;5.908;2023-09-19T15:27:21;3.63;;;1.40;;
42036;SDS011;30340;52.004;5.908;2023-09-19T15:29:46;5.53;;;1.55;;
42036;SDS011;30340;52.004;5.908;2023-09-19T15:32:12;4.10;;;1.33;;
42036;SDS011;30340;52.004;5.908;2023-09-19T15:34:38;3.80;;;1.73;;
42036;SDS011;30340;52.004;5.908;2023-09-19T15:37:04;2.67;;;1.38;;
42036;SDS011;30340;52.004;5.908;2023-09-19T15:39:30;3.22;;;1.60;;
42036;SDS011;30340;52.004;5.908;2023-09-19T15:41:58;3.97;;;1.50;;
42036;SDS011;30340;52.004;5.908;2023-09-19T15:44:24;3.10;;;1.27;;
42036;SDS011;30340;52.004;5.908;2023-09-19T15:46:53;3.72;;;1.10;;
42036;SDS011;30340;52.004;5.908;2023-09-19T15:49:18;3.83;;;1.30;;
42036;SDS011;30340;52.004;5.908;2023-09-19T15:51:44;3.72;;;1.33;;
42036;SDS011;30340;52.004;5.908;2023-09-19T15:54:13;3.53;;;1.38;;
42036;SDS011;30340;52.004;5.908;2023-09-19T15:56:40;4.00;;;1.52;;
42036;SDS011;30340;52.004;5.908;2023-09-19T15:59:06;2.85;;;1.10;;
42036;SDS011;30340;52.004;5.908;2023-09-19T16:01:32;5.68;;;1.40;;
42036;SDS011;30340;52.004;5.908;2023-09-19T16:03:57;5.00;;;1.20;;
42036;SDS011;30340;52.004;5.908;2023-09-19T16:06:27;2.92;;;1.20;;
42036;SDS011;30340;52.004;5.908;2023-09-19T16:08:58;4.63;;;1.20;;
42036;SDS011;30340;52.004;5.908;2023-09-19T16:11:25;4.82;;;1.85;;
42036;SDS011;30340;52.004;5.908;2023-09-19T16:13:52;3.42;;;1.20;;
42036;SDS011;30340;52.004;5.908;2023-09-19T16:16:18;4.03;;;1.55;;
42036;SDS011;30340;52.004;5.908;2023-09-19T16:18:48;4.28;;;1.45;;
42036;SDS011;30340;52.004;5.908;2023-09-19T16:21:16;3.10;;;1.20;;
42036;SDS011;30340;52.004;5.908;2023-09-19T16:23:45;4.30;;;1.20;;
42036;SDS011;30340;52.004;5.908;2023-09-19T16:26:11;3.88;;;1.38;;
42036;SDS011;30340;52.004;5.908;2023-09-19T16:28:40;4.65;;;1.30;;
42036;SDS011;30340;52.004;5.908;2023-09-19T16:31:07;2.90;;;1.30;;
42036;SDS011;30340;52.004;5.908;2023-09-19T16:33:34;4.25;;;1.35;;
42036;SDS011;30340;52.004;5.908;2023-09-19T16:36:02;4.28;;;1.42;;
42036;SDS011;30340;52.004;5.908;2023-09-19T16:38:31;2.90;;;1.33;;